Time;durP1;ratioP1;P1;durP2;ratioP2;P2;SDS_P1;SDS_P2;PMS_P1;PMS_P2;Temp;Humidity;BMP_temperature;BMP_pressure;BME280_temperature;BME280_humidity;BME280_pressure;Samples;Min_cycle;Max_cycle;Signal;HPM_P1;HPM_P2
2023/09/11 00:00:15;;;;;;;10.87;9.73;;;25.50;99.90;;;;;;6028698;23;20445;-84
2023/09/11 00:02:52;;;;;;;11.90;10.33;;;25.50;99.90;;;;;;6028632;23;20442;-86
2023/09/11 00:05:22;;;;;;;11.07;9.97;;;25.30;99.90;;;;;;6027033;23;20426;-85
2023/09/11 00:07:52;;;;;;;16.97;10.27;;;25.20;99.90;;;;;;6027320;23;20422;-82
2023/09/11 00:10:22;;;;;;;11.40;9.47;;;25.10;99.90;;;;;;6027125;23;20434;-85
2023/09/11 00:13:00;;;;;;;11.43;9.53;;;25.10;99.90;;;;;;6027471;23;20442;-84
2023/09/11 00:15:48;;;;;;;10.60;9.53;;;25.20;99.90;;;;;;6029381;23;20605;-85
2023/09/11 00:18:15;;;;;;;10.40;9.60;;;25.20;99.90;;;;;;6029059;23;20469;-83
2023/09/11 00:20:59;;;;;;;10.10;9.20;;;25.10;99.90;;;;;;6026052;23;20466;-84
2023/09/11 00:23:31;;;;;;;11.70;10.70;;;25.00;99.90;;;;;;6032537;23;20439;-84
2023/09/11 00:26:05;;;;;;;10.33;9.50;;;24.90;99.90;;;;;;6032287;23;20450;-84
2023/09/11 00:28:40;;;;;;;11.13;10.13;;;24.90;99.90;;;;;;6027043;23;21161;-84
2023/09/11 00:31:13;;;;;;;14.03;10.00;;;24.80;99.90;;;;;;6030154;23;20423;-84
2023/09/11 00:33:42;;;;;;;11.73;10.70;;;24.70;99.90;;;;;;6027843;23;20438;-85
2023/09/11 00:36:13;;;;;;;11.03;9.53;;;24.70;99.90;;;;;;6029514;23;20407;-84
2023/09/11 00:38:50;;;;;;;13.73;9.67;;;24.50;99.90;;;;;;6030948;23;20468;-83
2023/09/11 00:41:26;;;;;;;9.20;8.30;;;24.60;99.90;;;;;;6029402;23;20418;-84
2023/09/11 00:43:56;;;;;;;10.77;9.33;;;24.60;99.90;;;;;;6029508;23;20446;-84
2023/09/11 00:46:30;;;;;;;10.33;9.00;;;24.60;99.90;;;;;;6030991;23;20450;-84
2023/09/11 00:49:10;;;;;;;10.43;9.43;;;24.70;99.90;;;;;;6033973;23;20432;-83
2023/09/11 00:51:42;;;;;;;11.63;9.90;;;24.90;99.90;;;;;;6048572;23;20394;-84
2023/09/11 00:54:20;;;;;;;11.63;10.23;;;24.90;99.90;;;;;;6044769;23;20425;-82
2023/09/11 00:57:18;;;;;;;12.00;10.17;;;24.90;99.90;;;;;;6046573;23;20398;-83
2023/09/11 00:59:49;;;;;;;12.83;10.57;;;24.70;99.90;;;;;;6029715;23;20474;-84
2023/09/11 01:02:21;;;;;;;11.60;10.43;;;24.70;99.90;;;;;;6030397;23;20438;-85
2023/09/11 01:04:54;;;;;;;10.10;9.10;;;24.60;99.90;;;;;;6030514;23;20489;-85
2023/09/11 01:07:22;;;;;;;11.87;10.73;;;24.50;99.90;;;;;;6030736;23;20414;-83
2023/09/11 01:09:49;;;;;;;11.10;10.20;;;24.40;99.90;;;;;;6031519;23;20434;-85
2023/09/11 01:12:20;;;;;;;12.33;11.13;;;24.30;99.90;;;;;;6030348;23;20800;-85
2023/09/11 01:14:50;;;;;;;11.20;10.10;;;24.10;99.90;;;;;;6032247;23;20477;-85
2023/09/11 01:17:49;;;;;;;13.20;10.87;;;24.00;99.90;;;;;;6033637;23;20399;-85
2023/09/11 01:21:03;;;;;;;11.93;10.90;;;24.00;99.90;;;;;;6038989;23;20446;-86
2023/09/11 01:24:09;;;;;;;10.73;9.63;;;24.00;99.90;;;;;;6038974;23;20887;-85
2023/09/11 01:27:23;;;;;;;11.67;10.63;;;23.90;99.90;;;;;;6035013;23;20410;-87
2023/09/11 01:30:03;;;;;;;12.00;10.50;;;23.90;99.90;;;;;;6018056;23;20850;-84
2023/09/11 01:32:49;;;;;;;14.27;11.30;;;24.00;99.90;;;;;;6041896;23;20434;-85
2023/09/11 01:35:17;;;;;;;10.53;9.37;;;23.90;99.90;;;;;;6025805;23;20741;-82
2023/09/11 01:37:55;;;;;;;12.23;9.60;;;24.20;99.90;;;;;;6026873;23;20670;-85
2023/09/11 01:40:49;;;;;;;10.63;9.57;;;24.20;99.90;;;;;;6026707;23;20518;-84
2023/09/11 01:43:42;;;;;;;9.60;8.50;;;24.30;99.90;;;;;;6027454;23;20974;-84
2023/09/11 01:46:23;;;;;;;10.00;9.00;;;24.40;99.90;;;;;;6025316;23;20414;-84
2023/09/11 01:48:58;;;;;;;10.93;9.47;;;24.30;99.90;;;;;;6029545;23;20389;-85
2023/09/11 01:51:54;;;;;;;10.30;9.30;;;24.30;99.90;;;;;;6030655;23;20927;-86
2023/09/11 01:54:52;;;;;;;9.90;9.10;;;24.20;99.90;;;;;;6037477;23;20399;-83
2023/09/11 01:57:58;;;;;;;10.97;9.23;;;24.10;99.90;;;;;;6018596;23;20436;-84
2023/09/11 02:00:52;;;;;;;10.23;9.23;;;24.00;99.90;;;;;;5978172;23;20550;-83
2023/09/11 02:03:36;;;;;;;10.97;10.07;;;24.10;99.90;;;;;;5968839;23;21394;-85
2023/09/11 02:06:08;;;;;;;10.50;9.60;;;24.00;99.90;;;;;;5991056;23;20456;-85
2023/09/11 02:08:34;;;;;;;10.17;8.60;;;23.80;99.90;;;;;;5994156;23;20455;-83
2023/09/11 02:11:07;;;;;;;10.53;9.50;;;23.70;99.90;;;;;;5995191;23;20423;-85
2023/09/11 02:13:44;;;;;;;12.37;9.73;;;23.60;99.90;;;;;;5972935;23;20439;-85
2023/09/11 02:16:21;;;;;;;8.67;7.83;;;23.50;99.90;;;;;;5974331;23;20427;-84
2023/09/11 02:18:56;;;;;;;13.20;8.57;;;23.40;99.90;;;;;;5974160;23;20508;-84
2023/09/11 02:21:31;;;;;;;10.90;8.33;;;23.50;99.90;;;;;;5974293;23;20392;-82
2023/09/11 02:24:09;;;;;;;11.73;9.60;;;23.70;99.90;;;;;;5975868;23;20419;-84
2023/09/11 02:26:42;;;;;;;10.37;9.37;;;23.70;99.90;;;;;;5975845;23;20479;-84
2023/09/11 02:29:14;;;;;;;10.33;9.10;;;23.70;99.90;;;;;;5975600;23;20517;-85
2023/09/11 02:31:49;;;;;;;9.67;8.70;;;23.70;99.90;;;;;;5973116;23;20470;-83
2023/09/11 02:34:35;;;;;;;10.53;9.60;;;23.60;99.90;;;;;;5975452;23;20581;-84
2023/09/11 02:37:02;;;;;;;9.50;8.80;;;23.50;99.90;;;;;;5981786;23;20422;-84
2023/09/11 02:39:43;;;;;;;12.67;10.57;;;23.60;99.90;;;;;;6038084;23;20451;-83
2023/09/11 02:42:29;;;;;;;10.23;9.13;;;23.50;99.90;;;;;;6037542;23;20430;-86
2023/09/11 02:45:00;;;;;;;10.50;9.50;;;23.30;99.90;;;;;;6043292;23;20424;-86
2023/09/11 02:47:40;;;;;;;13.03;9.83;;;23.30;99.90;;;;;;6038668;23;20437;-86
2023/09/11 02:50:18;;;;;;;11.83;9.87;;;23.10;99.90;;;;;;6037329;23;20458;-83
2023/09/11 02:52:52;;;;;;;14.03;9.80;;;23.00;99.90;;;;;;6040171;23;20777;-84
2023/09/11 02:55:29;;;;;;;9.80;9.00;;;22.90;99.90;;;;;;6032417;23;20418;-87
2023/09/11 02:58:05;;;;;;;12.57;10.57;;;22.90;99.90;;;;;;6032451;23;20426;-86
2023/09/11 03:00:37;;;;;;;9.97;8.97;;;23.10;99.90;;;;;;6041916;23;20450;-87
2023/09/11 03:03:07;;;;;;;12.87;10.07;;;23.20;99.90;;;;;;6041168;23;20458;-87
2023/09/11 03:05:38;;;;;;;10.27;9.30;;;23.20;99.90;;;;;;6066427;23;20430;-86
2023/09/11 03:08:12;;;;;;;11.23;9.97;;;23.20;99.90;;;;;;6035236;23;20470;-86
2023/09/11 03:10:47;;;;;;;13.07;9.77;;;23.10;99.90;;;;;;6034356;23;21244;-87
2023/09/11 03:13:31;;;;;;;13.13;9.80;;;23.20;99.90;;;;;;6030275;23;20581;-85
2023/09/11 03:16:20;;;;;;;10.70;9.20;;;23.30;99.90;;;;;;6031919;23;20483;-84
2023/09/11 03:19:12;;;;;;;11.30;10.30;;;23.20;99.90;;;;;;6033456;23;20418;-87
2023/09/11 03:21:46;;;;;;;11.53;9.10;;;23.10;99.90;;;;;;6039376;23;20954;-85
2023/09/11 03:24:31;;;;;;;12.03;9.20;;;23.00;99.90;;;;;;6031106;23;20422;-87
2023/09/11 03:27:03;;;;;;;10.00;9.00;;;22.90;99.90;;;;;;6031903;23;20449;-88
2023/09/11 03:29:58;;;;;;;10.70;9.60;;;22.90;99.90;;;;;;6028653;23;20418;-87
2023/09/11 03:33:00;;;;;;;10.63;9.47;;;22.80;99.90;;;;;;6028025;23;20434;-85
2023/09/11 03:35:49;;;;;;;9.07;8.30;;;22.80;99.90;;;;;;6030588;23;20454;-87
2023/09/11 03:38:25;;;;;;;10.30;9.30;;;22.70;99.90;;;;;;6031096;23;20417;-85
2023/09/11 03:40:55;;;;;;;13.47;9.00;;;22.60;99.90;;;;;;6027035;23;20460;-86
2023/09/11 03:43:28;;;;;;;10.43;9.43;;;22.60;99.90;;;;;;6029343;23;20438;-84
2023/09/11 03:46:31;;;;;;;10.40;9.27;;;22.60;99.90;;;;;;6029785;23;20374;-86
2023/09/11 03:49:38;;;;;;;9.57;8.47;;;22.50;99.90;;;;;;6010007;23;20426;-87
2023/09/11 03:52:07;;;;;;;10.33;9.03;;;22.40;99.90;;;;;;6042236;23;20481;-86
2023/09/11 03:54:44;;;;;;;11.10;10.00;;;22.30;99.90;;;;;;6036635;23;20442;-83
2023/09/11 03:57:16;;;;;;;11.93;9.53;;;22.30;99.90;;;;;;6028956;23;20442;-85
2023/09/11 03:59:57;;;;;;;11.20;9.13;;;22.10;99.90;;;;;;6018324;23;20549;-84
2023/09/11 04:03:14;;;;;;;10.87;8.60;;;22.30;99.90;;;;;;6023021;23;20558;-84
2023/09/11 04:09:19;;;;;;;10.47;9.47;;;22.50;99.90;;;;;;5938935;24;20409;-86
2023/09/11 04:12:16;;;;;;;10.50;8.53;;;22.40;99.90;;;;;;5936535;24;20432;-85
2023/09/11 04:14:58;;;;;;;11.50;9.00;;;22.30;99.90;;;;;;5933983;24;20456;-88
2023/09/11 04:17:36;;;;;;;10.57;8.40;;;22.20;99.90;;;;;;5935970;24;20425;-85
2023/09/11 04:20:35;;;;;;;13.87;8.83;;;22.20;99.90;;;;;;5926811;24;20456;-86
2023/09/11 04:23:15;;;;;;;10.20;8.60;;;22.30;99.90;;;;;;5985919;23;20430;-84
2023/09/11 04:25:59;;;;;;;9.60;8.67;;;22.10;99.90;;;;;;6029123;23;20425;-86
2023/09/11 04:28:43;;;;;;;10.53;8.70;;;22.10;99.90;;;;;;6027529;23;20741;-84
2023/09/11 04:31:21;;;;;;;11.93;9.00;;;22.00;99.90;;;;;;6017200;23;20414;-84
2023/09/11 04:33:50;;;;;;;9.57;8.57;;;22.10;99.90;;;;;;6027779;23;20772;-85
2023/09/11 04:36:26;;;;;;;10.50;9.03;;;22.10;99.90;;;;;;6013446;23;20887;-85
2023/09/11 04:39:07;;;;;;;10.03;9.03;;;22.10;99.90;;;;;;6027028;23;20462;-84
2023/09/11 04:41:37;;;;;;;14.73;8.73;;;22.10;99.90;;;;;;6026519;23;20469;-85
2023/09/11 04:44:18;;;;;;;11.83;8.97;;;22.30;99.90;;;;;;6023247;23;20414;-85
2023/09/11 04:47:30;;;;;;;12.90;8.97;;;22.20;99.90;;;;;;6028465;23;20426;-85
2023/09/11 04:50:08;;;;;;;10.00;9.03;;;22.20;99.90;;;;;;6021436;23;20426;-86
2023/09/11 04:52:44;;;;;;;12.77;9.00;;;22.40;99.90;;;;;;6034521;23;20537;-86
2023/09/11 04:55:13;;;;;;;13.20;8.30;;;22.30;99.90;;;;;;6034425;23;20418;-86
2023/09/11 04:57:51;;;;;;;11.00;7.77;;;22.50;99.90;;;;;;6030916;23;20422;-86
2023/09/11 05:00:37;;;;;;;9.00;8.13;;;22.40;99.90;;;;;;6022346;23;20469;-85
2023/09/11 05:03:13;;;;;;;12.73;9.80;;;22.30;99.90;;;;;;6028497;23;21043;-85
2023/09/11 05:06:02;;;;;;;9.60;8.50;;;22.40;99.90;;;;;;6028487;23;20406;-86
2023/09/11 05:09:08;;;;;;;10.07;7.47;;;22.20;99.90;;;;;;6027117;23;20402;-86
2023/09/11 05:15:21;;;;;;;9.13;8.23;;;22.10;99.90;;;;;;6028026;23;20418;-84
2023/09/11 05:18:16;;;;;;;8.57;7.63;;;22.30;99.90;;;;;;6027594;23;20426;-88
2023/09/11 05:21:00;;;;;;;11.23;7.87;;;22.20;99.90;;;;;;6028893;23;20523;-84
2023/09/11 05:23:42;;;;;;;10.33;8.10;;;22.20;99.90;;;;;;6027078;23;20529;-86
2023/09/11 05:26:32;;;;;;;9.30;7.83;;;22.30;99.90;;;;;;6017350;23;20398;-86
2023/09/11 05:29:27;;;;;;;12.53;8.80;;;22.20;99.90;;;;;;6029714;23;20422;-85
2023/09/11 05:32:32;;;;;;;9.37;7.17;;;22.20;99.90;;;;;;6025549;23;20465;-88
2023/09/11 05:35:33;;;;;;;8.17;7.33;;;22.10;99.90;;;;;;6027604;23;20429;-84
2023/09/11 05:38:22;;;;;;;12.17;8.63;;;22.00;99.90;;;;;;6048557;23;20728;-87
2023/09/11 05:41:10;;;;;;;11.30;7.83;;;22.10;99.90;;;;;;6053676;23;20477;-85
2023/09/11 05:44:11;;;;;;;9.10;8.20;;;22.00;99.90;;;;;;6053654;23;20426;-87
2023/09/11 05:47:14;;;;;;;9.60;8.10;;;22.00;99.90;;;;;;6036592;23;20415;-86
2023/09/11 05:49:53;;;;;;;11.70;8.47;;;22.00;99.90;;;;;;6052417;23;20414;-83
2023/09/11 05:52:30;;;;;;;8.70;7.80;;;22.20;99.90;;;;;;6051165;23;20466;-85
2023/09/11 05:55:24;;;;;;;9.03;8.17;;;22.30;99.90;;;;;;6055880;23;20494;-86
2023/09/11 05:58:26;;;;;;;10.03;7.83;;;22.30;99.90;;;;;;6050317;23;20407;-85
2023/09/11 06:01:08;;;;;;;7.90;6.97;;;22.20;99.90;;;;;;6037019;23;20498;-85
2023/09/11 06:04:17;;;;;;;9.13;7.63;;;22.30;99.90;;;;;;6040274;23;20569;-84
2023/09/11 06:07:22;;;;;;;15.83;8.43;;;22.60;99.90;;;;;;6036405;23;20433;-83
2023/09/11 06:10:02;;;;;;;9.90;7.67;;;22.80;99.90;;;;;;6033253;23;20428;-87
2023/09/11 06:12:57;;;;;;;11.90;7.90;;;24.30;99.30;;;;;;6009496;23;20454;-84
2023/09/11 06:15:41;;;;;;;10.53;7.53;;;26.10;95.40;;;;;;6023211;23;20417;-85
2023/09/11 06:18:22;;;;;;;11.03;7.80;;;27.40;91.80;;;;;;6029705;23;20478;-86
2023/09/11 06:21:08;;;;;;;9.97;7.83;;;28.00;90.10;;;;;;6004487;23;20446;-85
2023/09/11 06:24:10;;;;;;;8.40;7.50;;;28.40;86.90;;;;;;6011204;23;20427;-85
2023/09/11 06:27:03;;;;;;;;;;;;;;;;;;;;;
2023/09/11 06:33:34;;;;;;;9.87;7.30;;;29.40;80.10;;;;;;6031127;23;21276;-86
2023/09/11 06:36:13;;;;;;;8.33;6.77;;;29.90;78.60;;;;;;6026598;23;20418;-85
2023/09/11 06:39:06;;;;;;;8.47;6.47;;;30.10;76.10;;;;;;6026064;23;20434;-84
2023/09/11 06:42:18;;;;;;;16.30;7.33;;;30.20;75.40;;;;;;6010611;23;20595;-85
2023/09/11 06:45:11;;;;;;;7.57;6.57;;;30.20;75.10;;;;;;6027934;23;20445;-83
2023/09/11 06:47:50;;;;;;;10.53;7.03;;;30.60;72.60;;;;;;5975817;23;20430;-84
2023/09/11 06:50:44;;;;;;;8.60;7.63;;;30.30;72.30;;;;;;6026332;23;20502;-83
2023/09/11 06:53:20;;;;;;;8.60;6.77;;;30.00;73.60;;;;;;6036670;23;20522;-86
2023/09/11 06:56:16;;;;;;;9.93;7.47;;;28.70;76.40;;;;;;5975253;23;20729;-85
2023/09/11 06:59:08;;;;;;;9.50;6.70;;;28.40;79.50;;;;;;6048412;23;20422;-84
2023/09/11 07:02:24;;;;;;;8.67;6.63;;;29.40;77.10;;;;;;6042102;23;20480;-84
2023/09/11 07:04:59;;;;;;;11.40;7.40;;;29.20;75.00;;;;;;6041302;23;20474;-84
2023/09/11 07:07:58;;;;;;;15.17;6.40;;;27.40;81.10;;;;;;6047625;23;20411;-85
2023/09/11 07:11:17;;;;;;;11.13;7.67;;;27.40;86.40;;;;;;6049481;23;20489;-84
2023/09/11 07:14:05;;;;;;;8.87;6.60;;;29.50;79.10;;;;;;6031479;23;20439;-85
2023/09/11 07:17:10;;;;;;;11.40;6.67;;;31.50;70.30;;;;;;6016869;23;20445;-85
2023/09/11 07:19:55;;;;;;;14.17;6.60;;;31.90;67.90;;;;;;6029632;23;20423;-86
2023/09/11 07:22:57;;;;;;;9.20;5.63;;;33.10;63.50;;;;;;6029760;23;20792;-85
2023/09/11 07:25:55;;;;;;;9.40;6.33;;;34.00;59.90;;;;;;6028966;23;20515;-85
2023/09/11 07:29:26;;;;;;;8.37;7.50;;;34.40;58.20;;;;;;6029262;23;21474;-84
2023/09/11 07:32:42;;;;;;;6.63;6.03;;;35.10;56.60;;;;;;6029506;23;20758;-85
2023/09/11 07:42:01;;;;;;;8.30;6.67;;;33.10;58.10;;;;;;6030580;23;20453;-84
2023/09/11 07:44:39;;;;;;;8.23;6.77;;;32.50;58.90;;;;;;6034153;23;20410;-83
2023/09/11 07:51:13;;;;;;;7.37;5.80;;;34.10;56.40;;;;;;6039550;23;20415;-84
2023/09/11 07:54:01;;;;;;;9.13;6.07;;;34.80;54.70;;;;;;5919216;24;20409;-87
2023/09/11 07:56:55;;;;;;;13.07;6.60;;;35.00;54.10;;;;;;6043341;23;20413;-85
2023/09/11 08:00:03;;;;;;;9.80;5.53;;;34.80;54.10;;;;;;6022686;23;20411;-86
2023/09/11 08:02:48;;;;;;;10.97;7.27;;;34.70;54.20;;;;;;6019157;23;20423;-86
2023/09/11 08:05:36;;;;;;;7.17;6.50;;;35.40;53.00;;;;;;6045870;23;20445;-85
2023/09/11 08:08:26;;;;;;;6.93;6.30;;;35.60;52.10;;;;;;6052573;23;20396;-85
2023/09/11 08:12:17;;;;;;;7.67;6.10;;;35.40;52.50;;;;;;6051279;23;20409;-87
2023/09/11 08:14:46;;;;;;;12.87;5.60;;;35.80;51.40;;;;;;6050998;23;20477;-85
2023/09/11 08:17:31;;;;;;;11.20;6.80;;;36.50;50.80;;;;;;6055821;23;20426;-85
2023/09/11 08:20:20;;;;;;;8.97;6.33;;;37.00;49.00;;;;;;6046659;23;20790;-86
2023/09/11 08:26:10;;;;;;;6.50;5.50;;;36.80;48.50;;;;;;6046195;23;20452;-88
2023/09/11 08:29:10;;;;;;;7.50;5.30;;;36.10;48.50;;;;;;6044807;23;20497;-87
2023/09/11 08:31:55;;;;;;;8.80;6.03;;;35.30;49.60;;;;;;6037885;23;20398;-86
2023/09/11 08:34:36;;;;;;;9.80;6.00;;;33.40;52.50;;;;;;6039683;23;20402;-85
2023/09/11 08:37:16;;;;;;;9.83;5.70;;;31.70;56.00;;;;;;6040805;23;20424;-85
2023/09/11 08:40:42;;;;;;;9.60;6.00;;;30.30;58.60;;;;;;6061041;23;20440;-85
2023/09/11 08:46:54;;;;;;;7.67;5.93;;;29.00;65.10;;;;;;6044344;23;20437;-84
2023/09/11 08:49:59;;;;;;;7.00;5.40;;;28.50;67.10;;;;;;6042979;23;20407;-87
2023/09/11 08:52:37;;;;;;;12.13;5.87;;;28.40;67.60;;;;;;6029244;23;20430;-86
2023/09/11 08:55:31;;;;;;;10.07;7.17;;;28.40;68.60;;;;;;6037653;23;20410;-84
2023/09/11 08:58:08;;;;;;;10.10;7.00;;;28.40;68.30;;;;;;6040238;23;20432;-85
2023/09/11 09:01:40;;;;;;;9.20;6.30;;;28.30;70.10;;;;;;6039140;23;20477;-85
2023/09/11 09:04:28;;;;;;;10.63;7.03;;;28.20;70.70;;;;;;6050915;23;20418;-86
2023/09/11 09:07:38;;;;;;;7.17;5.60;;;28.00;71.90;;;;;;6049032;23;20547;-86
2023/09/11 09:10:23;;;;;;;10.03;6.50;;;29.10;70.10;;;;;;6038449;23;20414;-86
2023/09/11 09:13:52;;;;;;;7.07;6.00;;;30.40;66.10;;;;;;6043467;23;20469;-85
2023/09/11 09:16:49;;;;;;;10.80;6.33;;;31.60;61.20;;;;;;6051593;23;20414;-83
2023/09/11 09:19:39;;;;;;;9.20;5.50;;;31.90;59.40;;;;;;6036958;23;20406;-85
2023/09/11 09:22:16;;;;;;;8.67;6.03;;;32.60;57.70;;;;;;6066680;23;20475;-85
2023/09/11 09:25:20;;;;;;;10.30;6.70;;;33.10;56.80;;;;;;6065523;23;20430;-84
2023/09/11 09:31:52;;;;;;;5.83;5.27;;;33.30;55.80;;;;;;5988654;24;20428;-84
2023/09/11 09:34:36;;;;;;;8.13;6.00;;;33.80;55.00;;;;;;6044765;23;20943;-84
2023/09/11 09:38:00;;;;;;;9.87;5.30;;;33.70;54.90;;;;;;6037727;23;20411;-88
2023/09/11 09:40:51;;;;;;;7.20;6.50;;;33.70;54.90;;;;;;6056199;23;20714;-85
2023/09/11 09:43:24;;;;;;;6.97;5.27;;;34.10;54.10;;;;;;6028135;23;20467;-84
2023/09/11 09:46:18;;;;;;;9.17;5.90;;;34.90;52.20;;;;;;6030751;23;20497;-83
2023/09/11 09:49:19;;;;;;;9.10;5.30;;;35.20;51.30;;;;;;6018426;23;20424;-85
2023/09/11 09:52:21;;;;;;;8.93;5.97;;;34.90;51.70;;;;;;6045585;23;20434;-86
2023/09/11 09:55:12;;;;;;;8.77;6.00;;;34.40;52.20;;;;;;6033576;23;20427;-86
2023/09/11 09:57:46;;;;;;;6.93;5.90;;;35.70;50.60;;;;;;6050974;23;20526;-86
2023/09/11 10:00:26;;;;;;;5.33;4.83;;;36.90;48.40;;;;;;6029053;23;21013;-86
2023/09/11 10:03:23;;;;;;;12.67;6.37;;;36.80;48.10;;;;;;6034865;23;20430;-85
2023/09/11 10:06:00;;;;;;;7.93;5.00;;;37.50;46.60;;;;;;6050511;23;20424;-86
2023/09/11 10:08:31;;;;;;;6.83;5.30;;;37.20;46.50;;;;;;6030289;23;20409;-84
2023/09/11 10:11:27;;;;;;;6.73;4.97;;;37.10;46.30;;;;;;6030250;23;20434;-86
2023/09/11 10:14:17;;;;;;;8.30;4.77;;;36.70;46.40;;;;;;6018231;23;20414;-85
2023/09/11 10:17:03;;;;;;;5.33;4.67;;;37.00;46.10;;;;;;6029752;23;20693;-85
2023/09/11 10:19:54;;;;;;;7.87;5.63;;;36.80;45.80;;;;;;6019969;23;20474;-83
2023/09/11 10:22:37;;;;;;;8.37;5.20;;;36.90;46.70;;;;;;6048912;23;21321;-84
2023/09/11 10:25:32;;;;;;;;;;;;;;;;;;;;;
2023/09/11 10:29:08;;;;;;;6.73;5.00;;;36.80;45.40;;;;;;6027599;23;20465;-85
2023/09/11 10:32:27;;;;;;;8.40;5.83;;;36.80;44.90;;;;;;6048914;23;20411;-86
2023/09/11 10:35:08;;;;;;;6.20;5.40;;;36.30;45.50;;;;;;6028586;23;20450;-86
2023/09/11 10:37:38;;;;;;;8.77;5.23;;;36.30;45.10;;;;;;6053627;23;20419;-85
2023/09/11 10:40:39;;;;;;;12.30;4.77;;;36.60;45.40;;;;;;6029116;23;20489;-85
2023/09/11 10:43:25;;;;;;;7.30;5.03;;;36.70;45.30;;;;;;6046739;23;20827;-85
2023/09/11 10:46:56;;;;;;;6.37;5.03;;;37.10;44.90;;;;;;6049211;23;20988;-85
2023/09/11 10:49:32;;;;;;;9.77;5.20;;;36.60;45.40;;;;;;6019878;23;20414;-84
2023/09/11 10:52:18;;;;;;;7.70;5.60;;;36.40;45.20;;;;;;6070437;23;20426;-86
2023/09/11 10:55:14;;;;;;;;;;;;;;;;;;;;;
2023/09/11 10:58:37;;;;;;;6.90;5.67;;;37.00;44.80;;;;;;6026300;23;20417;-85
2023/09/11 11:01:15;;;;;;;6.83;5.37;;;37.00;44.90;;;;;;6018257;23;20509;-85
2023/09/11 11:04:13;;;;;;;6.90;5.50;;;36.70;45.00;;;;;;6058320;23;20466;-85
2023/09/11 11:07:01;;;;;;;9.30;5.27;;;36.50;45.60;;;;;;6045836;23;20478;-84
2023/09/11 11:09:49;;;;;;;5.83;4.80;;;36.50;45.00;;;;;;6046536;23;20421;-86
2023/09/11 11:12:35;;;;;;;5.23;4.70;;;36.50;44.60;;;;;;6050335;23;20446;-86
2023/09/11 11:15:31;;;;;;;8.80;6.10;;;36.70;45.00;;;;;;6007099;23;20408;-85
2023/09/11 11:18:28;;;;;;;7.73;5.53;;;36.40;44.90;;;;;;6060375;23;20452;-85
2023/09/11 11:21:09;;;;;;;7.53;5.30;;;36.90;44.70;;;;;;6042688;23;20402;-85
2023/09/11 11:24:24;;;;;;;6.63;4.90;;;36.60;45.00;;;;;;6045215;23;20442;-85
2023/09/11 11:27:08;;;;;;;6.63;4.90;;;36.70;44.70;;;;;;6001007;23;20438;-86
2023/09/11 11:30:09;;;;;;;6.67;5.23;;;36.80;44.80;;;;;;6055047;23;20506;-86
2023/09/11 11:33:03;;;;;;;6.83;4.90;;;36.60;44.90;;;;;;6065382;23;20435;-84
2023/09/11 11:36:18;;;;;;;9.97;5.40;;;36.40;44.80;;;;;;6051627;23;20481;-84
2023/09/11 11:38:59;;;;;;;9.40;4.63;;;36.40;44.60;;;;;;6051811;23;20505;-87
2023/09/11 11:41:41;;;;;;;7.73;4.90;;;36.40;44.70;;;;;;6051536;23;20454;-86
2023/09/11 11:44:33;;;;;;;8.80;5.27;;;36.60;44.60;;;;;;6029787;23;20483;-86
2023/09/11 11:47:19;;;;;;;6.77;4.77;;;36.80;43.30;;;;;;6051635;23;20434;-85
2023/09/11 11:50:29;;;;;;;5.13;4.03;;;36.90;43.30;;;;;;6039111;23;20409;-85
2023/09/11 11:53:21;;;;;;;4.97;4.43;;;36.90;42.20;;;;;;6018537;23;20438;-87
2023/09/11 11:56:19;;;;;;;6.63;4.83;;;36.50;43.60;;;;;;6048908;23;20502;-86
2023/09/11 11:59:02;;;;;;;5.57;4.97;;;36.90;43.40;;;;;;6049853;23;20425;-86
2023/09/11 12:02:03;;;;;;;10.13;5.07;;;37.00;43.30;;;;;;6046804;23;20509;-85
2023/09/11 12:08:31;;;;;;;6.23;5.30;;;36.80;43.10;;;;;;6029265;23;21412;-84
2023/09/11 12:11:21;;;;;;;9.47;4.63;;;36.30;44.20;;;;;;6024551;23;20418;-85
2023/09/11 12:14:32;;;;;;;8.43;5.27;;;36.10;45.00;;;;;;6051444;23;20438;-85
2023/09/11 12:17:13;;;;;;;8.80;4.87;;;36.40;44.20;;;;;;6042065;23;20478;-84
2023/09/11 12:20:24;;;;;;;6.00;5.27;;;36.40;44.30;;;;;;6040200;23;20418;-85
2023/09/11 12:23:02;;;;;;;8.50;5.17;;;36.20;45.20;;;;;;6030892;23;20518;-84
2023/09/11 12:25:35;;;;;;;5.97;5.20;;;36.30;45.70;;;;;;6054139;23;20469;-84
2023/09/11 12:28:05;;;;;;;9.70;6.03;;;36.60;44.70;;;;;;6037334;23;20403;-83
2023/09/11 12:30:34;;;;;;;7.13;5.53;;;36.80;44.30;;;;;;6038292;23;21200;-81
2023/09/11 12:33:21;;;;;;;7.60;6.00;;;36.40;44.50;;;;;;6062256;23;20501;-85
2023/09/11 12:35:57;;;;;;;9.20;5.80;;;36.30;44.80;;;;;;6036472;23;20429;-81
2023/09/11 12:38:26;;;;;;;8.17;5.60;;;36.70;44.30;;;;;;6031522;23;20478;-84
2023/09/11 12:40:53;;;;;;;7.73;5.77;;;37.10;43.90;;;;;;6073501;23;20481;-83
2023/09/11 12:43:25;;;;;;;9.03;6.07;;;37.00;43.90;;;;;;6075785;23;20537;-80
2023/09/11 12:45:53;;;;;;;6.13;5.53;;;36.80;44.40;;;;;;6077378;23;20434;-82
2023/09/11 12:48:21;;;;;;;8.97;5.63;;;37.00;43.70;;;;;;6078832;23;20398;-83
2023/09/11 12:50:49;;;;;;;9.20;5.77;;;36.80;44.40;;;;;;6075444;23;20421;-82
2023/09/11 12:53:15;;;;;;;6.53;5.00;;;36.70;45.00;;;;;;6034232;23;20442;-83
2023/09/11 12:55:43;;;;;;;6.10;5.57;;;36.80;44.30;;;;;;6031215;23;20442;-82
2023/09/11 12:58:09;;;;;;;8.00;5.93;;;37.40;43.00;;;;;;6052358;23;20418;-81
2023/09/11 13:00:38;;;;;;;6.20;5.60;;;38.00;42.20;;;;;;6042115;23;20390;-81
2023/09/11 13:03:10;;;;;;;8.33;5.43;;;38.00;42.10;;;;;;6045847;23;20460;-83
2023/09/11 13:05:37;;;;;;;7.57;5.00;;;37.90;42.20;;;;;;6046450;23;20495;-81
2023/09/11 13:08:05;;;;;;;7.97;5.30;;;38.00;41.70;;;;;;6068379;23;20422;-82
2023/09/11 13:10:33;;;;;;;9.67;6.20;;;37.40;42.20;;;;;;6061927;23;20551;-84
2023/09/11 13:13:00;;;;;;;7.77;5.50;;;37.10;43.50;;;;;;6038867;23;20446;-84
2023/09/11 13:15:28;;;;;;;7.60;5.77;;;36.70;44.20;;;;;;6057497;23;20426;-83
2023/09/11 13:17:55;;;;;;;8.60;7.70;;;37.00;43.80;;;;;;6038783;23;20513;-83
2023/09/11 13:21:15;;;;;;;8.77;6.40;;;37.70;42.30;;;;;;5951526;24;20489;-85
2023/09/11 13:24:15;;;;;;;6.93;5.30;;;37.40;42.30;;;;;;5922200;24;20437;-83
2023/09/11 13:26:56;;;;;;;10.37;5.70;;;36.90;43.40;;;;;;5955333;24;20425;-81
2023/09/11 13:29:31;;;;;;;8.23;5.27;;;36.70;43.60;;;;;;5953374;24;20413;-84
2023/09/11 13:32:02;;;;;;;9.40;6.40;;;36.60;44.10;;;;;;5954205;24;20453;-83
2023/09/11 13:34:34;;;;;;;8.80;5.50;;;36.50;44.30;;;;;;5953688;24;20429;-83
2023/09/11 13:37:24;;;;;;;6.13;5.53;;;36.30;44.70;;;;;;5948758;24;20441;-85
2023/09/11 13:40:06;;;;;;;7.33;5.20;;;36.30;44.80;;;;;;5949909;24;20485;-81
2023/09/11 13:42:38;;;;;;;6.23;5.70;;;36.30;44.80;;;;;;5950153;24;20453;-82
2023/09/11 13:45:11;;;;;;;6.27;5.67;;;36.40;45.10;;;;;;5950881;24;21018;-83
2023/09/11 13:50:36;;;;;;;6.00;4.90;;;36.80;44.70;;;;;;5956274;24;20450;-83
2023/09/11 13:53:22;;;;;;;7.60;6.20;;;36.70;44.40;;;;;;5948732;24;20453;-82
2023/09/11 13:56:24;;;;;;;6.77;6.17;;;36.40;44.70;;;;;;5946367;24;20689;-80
2023/09/11 13:58:51;;;;;;;6.47;5.83;;;36.50;44.90;;;;;;6044548;23;20422;-83
2023/09/11 14:01:33;;;;;;;7.50;5.63;;;36.50;45.40;;;;;;6057182;23;20414;-83
2023/09/11 14:04:12;;;;;;;7.77;5.77;;;36.60;45.30;;;;;;6038370;23;20505;-84
2023/09/11 14:06:45;;;;;;;6.10;5.60;;;37.00;45.10;;;;;;6036525;23;20459;-80
2023/09/11 14:09:58;;;;;;;5.73;5.20;;;37.40;44.50;;;;;;6058213;23;20430;-84
2023/09/11 14:12:48;;;;;;;6.57;5.93;;;37.40;44.50;;;;;;6024603;23;20434;-83
2023/09/11 14:15:19;;;;;;;7.23;6.63;;;37.40;44.50;;;;;;6034633;23;20469;-85
2023/09/11 14:17:53;;;;;;;6.30;5.57;;;37.10;45.00;;;;;;6053858;23;20422;-83
2023/09/11 14:20:26;;;;;;;6.93;6.23;;;36.90;45.50;;;;;;6053613;23;20755;-85
2023/09/11 14:23:07;;;;;;;10.00;7.03;;;36.80;45.50;;;;;;6028986;23;20529;-84
2023/09/11 14:25:35;;;;;;;7.47;5.50;;;36.60;45.80;;;;;;6053788;23;20422;-82
2023/09/11 14:28:03;;;;;;;6.80;5.60;;;36.70;45.50;;;;;;6052359;23;21025;-82
2023/09/11 14:30:31;;;;;;;6.77;5.30;;;36.40;45.70;;;;;;6050467;23;20410;-82
2023/09/11 14:32:59;;;;;;;7.67;5.00;;;36.20;46.10;;;;;;6050944;23;20946;-83
2023/09/11 14:35:26;;;;;;;6.47;5.73;;;35.90;46.10;;;;;;6048737;23;20411;-81
2023/09/11 14:37:53;;;;;;;5.87;5.37;;;36.00;46.50;;;;;;6052600;23;21555;-85
2023/09/11 14:40:20;;;;;;;6.70;5.83;;;36.00;46.60;;;;;;6052667;23;20425;-85
2023/09/11 14:42:47;;;;;;;7.90;6.27;;;36.00;46.20;;;;;;6033510;23;20517;-84
2023/09/11 14:45:14;;;;;;;6.53;4.83;;;36.00;46.10;;;;;;6037144;23;20446;-84
2023/09/11 14:47:41;;;;;;;8.50;5.90;;;35.80;45.60;;;;;;6030394;23;20497;-84
2023/09/11 14:50:09;;;;;;;5.40;5.00;;;35.70;45.80;;;;;;6030735;23;20429;-83
2023/09/11 14:52:36;;;;;;;7.07;5.30;;;35.70;46.40;;;;;;6028775;23;20446;-84
2023/09/11 14:55:03;;;;;;;6.47;5.97;;;36.10;45.70;;;;;;6027614;23;20462;-85